createdAt,value
2018-02-24T00:01:50.837Z,99.90
2018-02-24T00:04:19.424Z,99.90
2018-02-24T00:06:47.875Z,99.90
2018-02-24T00:09:16.196Z,99.90
2018-02-24T00:11:44.572Z,99.90
2018-02-24T00:14:12.941Z,99.90
2018-02-24T00:16:41.343Z,99.90
2018-02-24T00:19:09.677Z,99.90
2018-02-24T00:21:38.128Z,99.90
2018-02-24T00:24:07.029Z,99.90
2018-02-24T00:26:36.140Z,99.90
2018-02-24T00:29:05.256Z,99.90
2018-02-24T00:31:33.599Z,99.90
2018-02-24T00:34:02.007Z,99.90
2018-02-24T00:36:30.361Z,99.90
2018-02-24T00:38:59.495Z,99.90
2018-02-24T00:41:27.850Z,99.90
2018-02-24T00:43:56.213Z,99.90
2018-02-24T00:46:25.316Z,99.90
2018-02-24T00:48:53.694Z,99.90
2018-02-24T00:51:22.021Z,99.90
2018-02-24T00:53:50.412Z,99.90
2018-02-24T00:56:18.748Z,99.90
2018-02-24T00:58:47.064Z,99.90
2018-02-24T01:01:15.440Z,99.90
2018-02-24T01:03:43.805Z,99.90
2018-02-24T01:06:12.189Z,99.90
2018-02-24T01:08:40.543Z,99.90
2018-02-24T01:11:08.905Z,99.90
2018-02-24T01:13:37.270Z,99.90
2018-02-24T01:16:06.390Z,99.90
2018-02-24T01:18:34.730Z,99.90
2018-02-24T01:21:03.116Z,99.90
2018-02-24T01:23:31.476Z,99.90
2018-02-24T01:26:00.628Z,99.90
2018-02-24T01:28:28.962Z,99.90
2018-02-24T01:30:57.309Z,99.90
2018-02-24T01:33:25.652Z,99.90
2018-02-24T01:35:53.993Z,99.90
2018-02-24T01:38:23.220Z,99.90
2018-02-24T01:40:51.570Z,99.90
2018-02-24T01:43:20.710Z,99.90
2018-02-24T01:45:49.073Z,99.90
2018-02-24T01:48:17.745Z,99.90
2018-02-24T01:50:46.101Z,99.90
2018-02-24T01:53:15.231Z,99.90
2018-02-24T01:55:43.592Z,99.90
2018-02-24T01:58:11.976Z,99.90
2018-02-24T02:00:40.356Z,99.90
2018-02-24T02:03:08.777Z,99.90
2018-02-24T02:05:37.121Z,99.90
2018-02-24T02:08:05.461Z,99.90
2018-02-24T02:10:34.833Z,99.90
2018-02-24T02:13:03.161Z,99.90
2018-02-24T02:15:31.578Z,99.90
2018-02-24T02:18:00.012Z,99.90
2018-02-24T02:20:29.305Z,99.90
2018-02-24T02:22:58.408Z,99.90
2018-02-24T02:25:27.549Z,99.90
2018-02-24T02:27:55.894Z,99.90
2018-02-24T02:30:24.272Z,99.90
2018-02-24T02:32:52.615Z,99.90
2018-02-24T02:35:21.037Z,99.90
2018-02-24T02:37:49.385Z,99.90
2018-02-24T02:40:18.521Z,99.90
2018-02-24T02:42:46.846Z,99.90
2018-02-24T02:45:15.313Z,99.90
2018-02-24T02:47:43.654Z,99.90
2018-02-24T02:50:12.009Z,99.90
2018-02-24T02:52:40.433Z,99.90
2018-02-24T02:55:09.018Z,99.90
2018-02-24T02:57:37.464Z,99.90
2018-02-24T03:00:06.141Z,99.90
2018-02-24T03:02:34.551Z,99.90
2018-02-24T03:05:02.893Z,99.90
2018-02-24T03:07:31.267Z,99.90
2018-02-24T03:09:59.596Z,99.90
2018-02-24T03:12:27.963Z,99.90
2018-02-24T03:14:56.302Z,99.90
2018-02-24T03:17:24.670Z,99.90
2018-02-24T03:19:53.009Z,99.90
2018-02-24T03:22:21.436Z,99.90
2018-02-24T03:24:49.781Z,99.90
2018-02-24T03:27:18.122Z,99.90
2018-02-24T03:29:46.496Z,99.90
2018-02-24T03:32:14.828Z,99.90
2018-02-24T03:34:44.016Z,99.90
2018-02-24T03:37:12.348Z,99.90
2018-02-24T03:39:40.714Z,99.90
2018-02-24T03:42:09.048Z,99.90
2018-02-24T03:44:37.433Z,99.90
2018-02-24T03:47:06.529Z,99.90
2018-02-24T03:49:35.703Z,99.90
2018-02-24T03:52:04.082Z,99.90
2018-02-24T03:54:32.417Z,99.90
2018-02-24T03:57:00.869Z,99.90
2018-02-24T03:59:29.964Z,99.90
2018-02-24T04:01:59.086Z,99.90
2018-02-24T04:04:27.430Z,99.90
2018-02-24T04:06:56.573Z,99.90
2018-02-24T04:09:25.230Z,99.90
2018-02-24T04:11:53.636Z,99.90
2018-02-24T04:14:21.976Z,99.90
2018-02-24T04:16:50.325Z,99.90
2018-02-24T04:19:19.552Z,99.90
2018-02-24T04:21:47.909Z,99.90
2018-02-24T04:24:17.053Z,99.90
2018-02-24T04:26:45.376Z,99.90
2018-02-24T04:29:13.742Z,99.90
2018-02-24T04:31:42.101Z,99.90
2018-02-24T04:34:10.529Z,99.90
2018-02-24T04:36:39.646Z,99.90
2018-02-24T04:39:08.033Z,99.90
2018-02-24T04:41:36.382Z,99.90
2018-02-24T04:44:05.866Z,99.90
2018-02-24T04:46:35.020Z,99.90
2018-02-24T04:49:03.362Z,99.90
2018-02-24T04:51:31.749Z,99.90
2018-02-24T04:54:00.086Z,99.90
2018-02-24T04:56:28.449Z,99.90
2018-02-24T04:58:58.312Z,99.90
2018-02-24T05:01:26.677Z,99.90
2018-02-24T05:03:55.785Z,99.90
2018-02-24T05:06:24.920Z,99.90
2018-02-24T05:08:53.381Z,99.90
2018-02-24T05:11:21.769Z,99.90
2018-02-24T05:13:50.149Z,99.90
2018-02-24T05:16:18.620Z,99.90
2018-02-24T05:18:47.009Z,99.90
2018-02-24T05:21:15.334Z,99.90
2018-02-24T05:23:44.483Z,99.90
2018-02-24T05:26:12.822Z,99.90
2018-02-24T05:28:41.229Z,99.90
2018-02-24T05:31:09.581Z,99.90
2018-02-24T05:33:37.986Z,99.90
2018-02-24T05:36:06.345Z,99.90
2018-02-24T05:38:34.708Z,99.90
2018-02-24T05:41:03.808Z,99.90
2018-02-24T05:43:32.981Z,99.90
2018-02-24T05:46:01.318Z,99.90
2018-02-24T05:48:30.097Z,99.90
2018-02-24T05:50:58.440Z,99.90
2018-02-24T05:53:27.557Z,99.90
2018-02-24T05:55:55.949Z,99.90
2018-02-24T05:58:24.288Z,99.90
2018-02-24T06:00:52.657Z,99.90
2018-02-24T06:03:20.984Z,99.90
2018-02-24T06:05:49.371Z,99.90
2018-02-24T06:08:17.693Z,99.90
2018-02-24T06:10:46.065Z,99.90
2018-02-24T06:13:15.191Z,99.90
2018-02-24T06:15:44.001Z,99.90
2018-02-24T06:18:12.325Z,99.90
2018-02-24T06:20:40.672Z,99.90
2018-02-24T06:23:09.042Z,99.90
2018-02-24T06:25:37.380Z,99.90
2018-02-24T06:28:06.565Z,99.90
2018-02-24T06:30:35.672Z,99.90
2018-02-24T06:33:04.822Z,99.90
2018-02-24T06:35:33.180Z,99.90
2018-02-24T06:38:01.553Z,99.90
2018-02-24T06:40:29.896Z,99.90
2018-02-24T06:42:58.993Z,99.90
2018-02-24T06:45:28.116Z,99.90
2018-02-24T06:47:56.491Z,99.90
2018-02-24T06:50:24.860Z,99.90
2018-02-24T06:52:53.231Z,99.90
2018-02-24T06:55:21.632Z,99.90
2018-02-24T06:57:49.966Z,99.90
2018-02-24T07:00:19.104Z,99.90
2018-02-24T07:02:47.440Z,99.90
2018-02-24T07:05:15.828Z,99.90
2018-02-24T07:07:44.947Z,99.90
2018-02-24T07:10:13.304Z,99.90
2018-02-24T07:12:42.404Z,99.90
2018-02-24T07:15:10.803Z,99.90
2018-02-24T07:17:39.169Z,99.90
2018-02-24T07:20:07.537Z,99.90
2018-02-24T07:22:36.673Z,99.90
2018-02-24T07:25:05.001Z,99.90
2018-02-24T07:27:34.138Z,99.90
2018-02-24T07:30:02.502Z,99.90
2018-02-24T07:32:30.873Z,99.90
2018-02-24T07:34:59.264Z,99.90
2018-02-24T07:37:27.643Z,99.90
2018-02-24T07:39:56.017Z,99.90
2018-02-24T07:42:24.449Z,99.90
2018-02-24T07:44:52.828Z,99.90
2018-02-24T07:47:21.214Z,99.90
2018-02-24T07:49:50.322Z,99.90
2018-02-24T07:52:19.449Z,99.90
2018-02-24T07:54:47.789Z,99.90
2018-02-24T07:57:17.122Z,99.90
2018-02-24T07:59:45.473Z,99.90
2018-02-24T08:02:13.884Z,99.90
2018-02-24T08:04:42.266Z,99.90
2018-02-24T08:07:10.605Z,99.90
2018-02-24T08:09:39.754Z,99.90
2018-02-24T08:12:08.180Z,99.90
2018-02-24T08:14:37.325Z,99.90
2018-02-24T08:17:05.673Z,99.90
2018-02-24T08:19:34.081Z,99.90
2018-02-24T08:22:02.415Z,99.90
2018-02-24T08:24:30.789Z,99.90
2018-02-24T08:26:59.138Z,99.90
2018-02-24T08:29:27.532Z,99.90
2018-02-24T08:31:56.634Z,99.90
2018-02-24T08:34:25.737Z,99.90
2018-02-24T08:36:54.120Z,99.90
2018-02-24T08:39:22.477Z,99.90
2018-02-24T08:41:51.019Z,99.90
2018-02-24T08:44:19.358Z,99.90
2018-02-24T08:46:47.724Z,99.90
2018-02-24T08:49:16.920Z,99.90
2018-02-24T08:51:46.045Z,99.90
2018-02-24T08:54:14.349Z,99.90
2018-02-24T08:56:43.085Z,99.90
2018-02-24T08:59:11.436Z,99.90
2018-02-24T09:01:39.856Z,99.90
2018-02-24T09:04:08.229Z,99.90
2018-02-24T09:06:36.563Z,99.90
2018-02-24T09:09:04.937Z,99.90
2018-02-24T09:11:33.345Z,99.90
2018-02-24T09:14:02.478Z,99.90
2018-02-24T09:16:30.819Z,99.90
2018-02-24T09:18:59.833Z,99.90
2018-02-24T09:21:28.739Z,99.90
2018-02-24T09:23:57.110Z,99.90
2018-02-24T09:26:25.441Z,99.90
2018-02-24T09:28:54.577Z,99.90
2018-02-24T09:31:22.973Z,99.90
2018-02-24T09:33:51.313Z,99.90
2018-02-24T09:36:19.698Z,99.90
2018-02-24T09:38:48.847Z,99.90
2018-02-24T09:41:17.158Z,99.90
2018-02-24T09:43:46.281Z,99.90
2018-02-24T09:46:14.720Z,99.90
2018-02-24T09:48:43.039Z,99.90
2018-02-24T09:51:11.401Z,99.90
2018-02-24T09:53:39.752Z,99.90
2018-02-24T09:56:08.132Z,99.90
2018-02-24T09:58:37.377Z,99.90
2018-02-24T10:01:05.714Z,99.90
2018-02-24T10:03:34.076Z,99.90
2018-02-24T10:06:02.434Z,99.90
2018-02-24T10:08:30.780Z,99.90
2018-02-24T10:10:59.169Z,99.90
2018-02-24T10:13:27.496Z,99.90
2018-02-24T10:15:56.601Z,99.90
2018-02-24T10:18:25.068Z,99.90
2018-02-24T10:20:53.401Z,99.90
2018-02-24T10:23:21.760Z,99.90
2018-02-24T10:25:50.107Z,99.90
2018-02-24T10:28:19.213Z,99.90
2018-02-24T10:30:48.372Z,98.90
2018-02-24T10:33:16.677Z,98.80
2018-02-24T10:35:45.770Z,94.90
2018-02-24T10:38:14.180Z,94.90
2018-02-24T10:40:42.517Z,94.20
2018-02-24T10:43:10.974Z,94.00
2018-02-24T10:45:40.135Z,94.70
2018-02-24T10:48:08.465Z,94.60
2018-02-24T10:50:37.562Z,94.40
2018-02-24T10:53:06.688Z,93.50
2018-02-24T10:55:35.012Z,93.50
2018-02-24T10:58:03.343Z,93.80
2018-02-24T11:00:31.708Z,93.10
2018-02-24T11:03:00.033Z,93.40
2018-02-24T11:05:28.369Z,92.90
2018-02-24T11:07:56.766Z,91.40
2018-02-24T11:10:25.093Z,91.60
2018-02-24T11:12:53.485Z,90.80
2018-02-24T11:15:21.973Z,91.40
2018-02-24T11:17:50.313Z,92.00
2018-02-24T11:20:18.661Z,91.90
2018-02-24T11:22:47.012Z,90.80
2018-02-24T11:25:16.101Z,90.90
2018-02-24T11:27:44.466Z,90.90
2018-02-24T11:30:12.808Z,91.50
2018-02-24T11:32:41.126Z,91.20
2018-02-24T11:35:10.364Z,90.40
2018-02-24T11:37:39.429Z,86.10
2018-02-24T11:40:08.002Z,86.10
2018-02-24T11:42:36.383Z,82.90
2018-02-24T11:45:05.496Z,87.30
2018-02-24T11:47:33.817Z,87.30
2018-02-24T11:50:02.133Z,86.50
2018-02-24T11:52:30.530Z,87.80
2018-02-24T11:54:58.880Z,88.60
2018-02-24T11:57:27.982Z,84.60
2018-02-24T11:59:57.080Z,86.00
2018-02-24T12:02:26.220Z,86.40
2018-02-24T12:04:54.572Z,86.30
2018-02-24T12:07:22.887Z,87.90
2018-02-24T12:09:51.234Z,87.40
2018-02-24T12:12:19.565Z,84.60
2018-02-24T12:14:47.911Z,84.70
2018-02-24T12:17:16.273Z,86.20
2018-02-24T12:19:44.632Z,88.90
2018-02-24T12:22:13.009Z,88.20
2018-02-24T12:24:41.371Z,87.60
2018-02-24T12:27:09.720Z,89.00
2018-02-24T12:29:38.073Z,90.00
2018-02-24T12:32:06.533Z,89.80
2018-02-24T12:34:35.058Z,85.00
2018-02-24T12:37:03.492Z,83.50
2018-02-24T12:39:31.821Z,83.80
2018-02-24T12:42:00.960Z,82.30
2018-02-24T12:44:29.309Z,81.50
2018-02-24T12:46:58.401Z,83.20
2018-02-24T12:49:27.539Z,85.30
2018-02-24T12:51:55.877Z,85.20
2018-02-24T12:54:24.985Z,86.70
2018-02-24T12:56:53.363Z,86.70
2018-02-24T12:59:22.458Z,87.40
2018-02-24T13:01:50.819Z,87.30
2018-02-24T13:04:19.956Z,83.10
2018-02-24T13:06:48.290Z,82.90
2018-02-24T13:09:16.729Z,80.90
2018-02-24T13:11:45.194Z,83.60
2018-02-24T13:14:13.550Z,84.90
2018-02-24T13:16:41.938Z,85.50
2018-02-24T13:19:10.325Z,81.70
2018-02-24T13:21:38.693Z,82.70
2018-02-24T13:24:07.732Z,84.50
2018-02-24T13:26:36.077Z,85.80
2018-02-24T13:29:05.261Z,89.10
2018-02-24T13:31:33.612Z,89.10
2018-02-24T13:34:01.968Z,89.90
2018-02-24T13:36:30.328Z,90.00
2018-02-24T13:38:58.688Z,89.50
2018-02-24T13:41:27.061Z,90.10
2018-02-24T13:43:55.408Z,90.10
2018-02-24T13:46:24.537Z,90.10
2018-02-24T13:48:53.478Z,90.10
2018-02-24T13:51:21.795Z,90.50
2018-02-24T13:53:50.376Z,90.20
2018-02-24T13:56:18.728Z,90.40
2018-02-24T13:58:47.929Z,87.80
2018-02-24T14:01:17.634Z,88.70
2018-02-24T14:03:46.729Z,89.10
2018-02-24T14:06:15.822Z,89.90
2018-02-24T14:08:44.955Z,90.10
2018-02-24T14:11:13.324Z,90.10
2018-02-24T14:13:41.649Z,89.30
2018-02-24T14:16:10.092Z,86.70
2018-02-24T14:18:38.432Z,87.10
2018-02-24T14:21:07.534Z,84.30
2018-02-24T14:23:35.908Z,84.40
2018-02-24T14:26:05.000Z,87.20
2018-02-24T14:28:34.113Z,86.20
2018-02-24T14:31:02.476Z,86.30
2018-02-24T14:33:30.813Z,87.30
2018-02-24T14:35:59.160Z,88.50
2018-02-24T14:38:27.529Z,90.00
2018-02-24T14:40:55.888Z,90.50
2018-02-24T14:43:24.978Z,91.00
2018-02-24T14:45:54.107Z,90.70
2018-02-24T14:48:22.469Z,90.70
2018-02-24T14:50:50.826Z,90.70
2018-02-24T14:53:19.244Z,83.90
2018-02-24T14:55:47.900Z,77.60
2018-02-24T14:58:16.237Z,79.00
2018-02-24T15:00:44.605Z,79.40
2018-02-24T15:03:12.941Z,80.60
2018-02-24T15:05:42.129Z,80.90
2018-02-24T15:08:10.563Z,81.70
2018-02-24T15:10:38.951Z,82.10
2018-02-24T15:13:07.357Z,81.20
2018-02-24T15:15:35.740Z,82.20
2018-02-24T15:18:04.086Z,82.70
2018-02-24T15:20:32.424Z,80.60
2018-02-24T15:23:00.821Z,81.10
2018-02-24T15:25:29.917Z,83.00
2018-02-24T15:27:58.262Z,82.30
2018-02-24T15:30:26.608Z,81.40
2018-02-24T15:32:55.782Z,78.80
2018-02-24T15:35:24.116Z,80.10
2018-02-24T15:37:52.486Z,82.70
2018-02-24T15:40:20.833Z,84.00
2018-02-24T15:42:49.925Z,86.90
2018-02-24T15:45:18.286Z,86.90
2018-02-24T15:47:46.610Z,88.60
2018-02-24T15:50:14.936Z,89.60
2018-02-24T15:52:43.302Z,90.40
2018-02-24T15:55:11.642Z,90.40
2018-02-24T15:57:39.978Z,85.30
2018-02-24T16:00:09.089Z,81.20
2018-02-24T16:02:37.453Z,79.10
2018-02-24T16:05:06.865Z,80.00
2018-02-24T16:07:35.195Z,81.70
2018-02-24T16:10:03.549Z,83.30
2018-02-24T16:12:31.876Z,84.50
2018-02-24T16:15:01.773Z,87.70
2018-02-24T16:17:30.116Z,87.70
2018-02-24T16:19:58.502Z,88.90
2018-02-24T16:22:26.853Z,90.30
2018-02-24T16:24:55.208Z,90.80
2018-02-24T16:27:24.376Z,90.40
2018-02-24T16:29:52.698Z,90.40
2018-02-24T16:32:21.021Z,90.20
2018-02-24T16:34:49.401Z,90.20
2018-02-24T16:37:17.741Z,90.30
2018-02-24T16:39:46.856Z,88.70
2018-02-24T16:42:15.217Z,88.60
2018-02-24T16:44:43.560Z,86.70
2018-02-24T16:47:11.898Z,86.90
2018-02-24T16:49:40.241Z,88.10
2018-02-24T16:52:09.401Z,87.10
2018-02-24T16:54:37.737Z,87.10
2018-02-24T16:57:06.069Z,87.90
2018-02-24T16:59:34.689Z,88.00
2018-02-24T17:02:03.061Z,89.10
2018-02-24T17:04:31.407Z,89.90
2018-02-24T17:06:59.742Z,90.60
2018-02-24T17:09:28.101Z,91.20
2018-02-24T17:11:56.441Z,91.80
2018-02-24T17:14:24.790Z,92.40
2018-02-24T17:16:53.172Z,92.80
2018-02-24T17:19:21.524Z,93.30
2018-02-24T17:21:50.840Z,93.30
2018-02-24T17:24:19.192Z,93.80
2018-02-24T17:26:47.541Z,94.00
2018-02-24T17:29:15.924Z,94.60
2018-02-24T17:31:45.006Z,94.90
2018-02-24T17:34:13.390Z,94.90
2018-02-24T17:36:41.762Z,95.10
2018-02-24T17:39:10.864Z,94.50
2018-02-24T17:41:40.021Z,95.10
2018-02-24T17:44:08.410Z,95.10
2018-02-24T17:46:36.769Z,94.80
2018-02-24T17:49:05.137Z,94.50
2018-02-24T17:51:33.526Z,92.80
2018-02-24T17:54:01.971Z,93.00
2018-02-24T17:56:30.357Z,93.20
2018-02-24T17:58:58.713Z,93.40
2018-02-24T18:01:27.816Z,93.60
2018-02-24T18:03:56.968Z,92.90
2018-02-24T18:06:25.314Z,92.90
2018-02-24T18:08:53.661Z,93.30
2018-02-24T18:11:22.782Z,92.90
2018-02-24T18:13:51.133Z,92.90
2018-02-24T18:16:19.530Z,93.00
2018-02-24T18:18:47.856Z,93.10
2018-02-24T18:21:16.193Z,92.90
2018-02-24T18:23:44.563Z,93.10
2018-02-24T18:26:12.941Z,93.00
2018-02-24T18:28:41.329Z,92.80
2018-02-24T18:31:10.545Z,93.00
2018-02-24T18:33:38.980Z,93.00
2018-02-24T18:36:07.320Z,92.80
2018-02-24T18:38:35.701Z,93.00
2018-02-24T18:41:04.041Z,92.30
2018-02-24T18:43:32.438Z,92.40
2018-02-24T18:46:00.821Z,92.60
2018-02-24T18:48:29.165Z,92.80
2018-02-24T18:50:57.625Z,92.70
2018-02-24T18:53:26.752Z,93.00
2018-02-24T18:55:55.110Z,93.30
2018-02-24T18:58:23.465Z,92.80
2018-02-24T19:00:52.596Z,92.80
2018-02-24T19:03:21.019Z,92.70
2018-02-24T19:05:50.217Z,93.20
2018-02-24T19:08:18.556Z,93.20
2018-02-24T19:10:46.925Z,93.40
2018-02-24T19:13:15.264Z,93.50
2018-02-24T19:15:43.626Z,93.90
2018-02-24T19:18:12.069Z,94.00
2018-02-24T19:20:40.524Z,94.00
2018-02-24T19:23:08.861Z,94.10
2018-02-24T19:25:37.253Z,94.20
2018-02-24T19:28:05.685Z,94.50
2018-02-24T19:30:34.031Z,94.40
2018-02-24T19:33:03.140Z,94.50
2018-02-24T19:35:31.482Z,94.50
2018-02-24T19:38:00.619Z,94.90
2018-02-24T19:40:28.958Z,94.90
2018-02-24T19:42:58.197Z,95.10
2018-02-24T19:45:26.564Z,95.10
2018-02-24T19:47:54.895Z,95.00
2018-02-24T19:50:23.280Z,95.20
2018-02-24T19:52:51.633Z,95.30
2018-02-24T19:55:19.979Z,95.10
2018-02-24T19:57:48.355Z,95.20
2018-02-24T20:00:16.705Z,95.40
2018-02-24T20:02:45.039Z,95.30
2018-02-24T20:05:13.433Z,95.60
2018-02-24T20:07:41.773Z,95.80
2018-02-24T20:10:10.118Z,96.00
2018-02-24T20:12:38.505Z,96.20
2018-02-24T20:15:07.101Z,96.50
2018-02-24T20:17:35.459Z,96.50
2018-02-24T20:20:03.869Z,96.50
2018-02-24T20:22:32.233Z,96.50
2018-02-24T20:25:00.605Z,96.80
2018-02-24T20:27:29.029Z,96.70
2018-02-24T20:29:57.398Z,96.70
2018-02-24T20:32:25.865Z,96.80
2018-02-24T20:34:54.208Z,97.10
2018-02-24T20:37:22.618Z,97.40
2018-02-24T20:39:51.102Z,97.50
2018-02-24T20:42:19.481Z,97.40
2018-02-24T20:44:47.826Z,97.40
2018-02-24T20:47:16.214Z,97.40
2018-02-24T20:49:44.558Z,97.50
2018-02-24T20:52:12.902Z,97.80
2018-02-24T20:54:41.251Z,98.00
2018-02-24T20:57:09.589Z,98.00
2018-02-24T20:59:38.750Z,98.10
2018-02-24T21:02:07.089Z,98.10
2018-02-24T21:04:35.489Z,98.10
2018-02-24T21:07:03.825Z,98.20
2018-02-24T21:09:32.212Z,98.20
2018-02-24T21:12:00.629Z,98.30
2018-02-24T21:14:29.015Z,98.50
2018-02-24T21:16:57.353Z,98.60
2018-02-24T21:19:25.710Z,98.80
2018-02-24T21:21:54.127Z,98.80
2018-02-24T21:24:22.440Z,98.90
2018-02-24T21:26:50.822Z,99.00
2018-02-24T21:29:19.272Z,99.10
2018-02-24T21:31:47.619Z,99.40
2018-02-24T21:34:16.018Z,99.50
2018-02-24T21:36:44.382Z,99.60
2018-02-24T21:39:12.765Z,99.70
2018-02-24T21:41:41.141Z,99.90
2018-02-24T21:44:09.519Z,99.90
2018-02-24T21:46:38.617Z,99.90
2018-02-24T21:49:07.773Z,99.90
2018-02-24T21:51:36.131Z,99.90
2018-02-24T21:54:04.533Z,99.90
2018-02-24T21:56:32.894Z,99.90
2018-02-24T21:59:01.245Z,99.90
2018-02-24T22:01:29.613Z,99.90
2018-02-24T22:03:57.993Z,99.90
2018-02-24T22:06:26.345Z,99.90
2018-02-24T22:08:55.469Z,99.90
2018-02-24T22:11:23.845Z,99.90
2018-02-24T22:13:52.181Z,99.90
2018-02-24T22:16:20.539Z,99.90
2018-02-24T22:18:50.421Z,99.90
2018-02-24T22:21:18.802Z,99.90
2018-02-24T22:23:47.173Z,99.90
2018-02-24T22:26:15.562Z,99.90
2018-02-24T22:28:43.948Z,99.90
2018-02-24T22:31:12.281Z,99.90
2018-02-24T22:33:41.377Z,99.90
2018-02-24T22:36:09.762Z,99.90
2018-02-24T22:38:38.169Z,99.90
2018-02-24T22:41:06.522Z,99.90
2018-02-24T22:43:34.872Z,99.90
2018-02-24T22:46:04.003Z,99.90
2018-02-24T22:48:37.993Z,99.90
2018-02-24T22:51:06.336Z,99.90
2018-02-24T22:53:34.719Z,99.90
2018-02-24T22:56:03.907Z,99.90
2018-02-24T22:58:32.360Z,99.90
2018-02-24T23:01:00.767Z,99.90
2018-02-24T23:03:29.136Z,99.90
2018-02-24T23:05:57.525Z,99.90
2018-02-24T23:08:25.878Z,99.90
2018-02-24T23:10:54.264Z,99.90
2018-02-24T23:13:22.660Z,99.90
2018-02-24T23:15:51.013Z,99.90
2018-02-24T23:18:19.548Z,99.90
2018-02-24T23:20:47.925Z,99.90
2018-02-24T23:23:16.293Z,99.90
2018-02-24T23:25:45.424Z,99.90
2018-02-24T23:28:13.778Z,99.90
2018-02-24T23:30:42.931Z,99.90
2018-02-24T23:33:11.296Z,99.90
2018-02-24T23:35:39.715Z,99.90
2018-02-24T23:38:08.857Z,99.90
2018-02-24T23:40:37.243Z,99.90
2018-02-24T23:43:05.578Z,99.90
2018-02-24T23:45:34.697Z,99.90
2018-02-24T23:48:03.060Z,99.90
2018-02-24T23:50:31.424Z,99.90
2018-02-24T23:53:00.531Z,99.90
2018-02-24T23:55:28.945Z,99.90
2018-02-24T23:57:57.277Z,99.90
